sensor_id;sensor_type;location;lat;lon;timestamp;P1;durP1;ratioP1;P2;durP2;ratioP2
18732;SDS011;9495;51.210;2.934;2023-04-21T00:00:32;22.20;;;18.10;;
18732;SDS011;9495;51.210;2.934;2023-04-21T00:03:01;20.87;;;18.17;;
18732;SDS011;9495;51.210;2.934;2023-04-21T00:05:31;20.83;;;18.53;;
18732;SDS011;9495;51.210;2.934;2023-04-21T00:08:00;20.57;;;17.63;;
18732;SDS011;9495;51.210;2.934;2023-04-21T00:10:28;25.27;;;18.77;;
18732;SDS011;9495;51.210;2.934;2023-04-21T00:12:57;21.50;;;18.53;;
18732;SDS011;9495;51.210;2.934;2023-04-21T00:15:25;21.17;;;18.30;;
18732;SDS011;9495;51.210;2.934;2023-04-21T00:17:54;24.63;;;19.77;;
18732;SDS011;9495;51.210;2.934;2023-04-21T00:20:25;23.87;;;19.90;;
18732;SDS011;9495;51.210;2.934;2023-04-21T00:22:53;21.80;;;19.37;;
18732;SDS011;9495;51.210;2.934;2023-04-21T00:25:22;23.20;;;20.23;;
18732;SDS011;9495;51.210;2.934;2023-04-21T00:27:51;22.97;;;19.70;;
18732;SDS011;9495;51.210;2.934;2023-04-21T00:30:19;22.60;;;20.20;;
18732;SDS011;9495;51.210;2.934;2023-04-21T00:32:47;22.40;;;19.77;;
18732;SDS011;9495;51.210;2.934;2023-04-21T00:35:16;23.33;;;20.33;;
18732;SDS011;9495;51.210;2.934;2023-04-21T00:37:46;24.00;;;20.40;;
18732;SDS011;9495;51.210;2.934;2023-04-21T00:40:15;24.77;;;20.93;;
18732;SDS011;9495;51.210;2.934;2023-04-21T00:42:44;25.67;;;21.60;;
18732;SDS011;9495;51.210;2.934;2023-04-21T00:45:12;25.63;;;21.13;;
18732;SDS011;9495;51.210;2.934;2023-04-21T00:47:41;29.03;;;22.70;;
18732;SDS011;9495;51.210;2.934;2023-04-21T00:50:10;24.80;;;21.40;;
18732;SDS011;9495;51.210;2.934;2023-04-21T00:52:40;25.27;;;22.00;;
18732;SDS011;9495;51.210;2.934;2023-04-21T00:55:10;24.77;;;22.00;;
18732;SDS011;9495;51.210;2.934;2023-04-21T00:57:39;27.43;;;23.47;;
18732;SDS011;9495;51.210;2.934;2023-04-21T01:00:08;28.17;;;23.37;;
18732;SDS011;9495;51.210;2.934;2023-04-21T01:02:37;29.03;;;24.63;;
18732;SDS011;9495;51.210;2.934;2023-04-21T01:05:08;28.60;;;24.07;;
18732;SDS011;9495;51.210;2.934;2023-04-21T01:07:37;30.47;;;24.37;;
18732;SDS011;9495;51.210;2.934;2023-04-21T01:10:06;29.00;;;25.40;;
18732;SDS011;9495;51.210;2.934;2023-04-21T01:12:42;31.27;;;24.33;;
18732;SDS011;9495;51.210;2.934;2023-04-21T01:15:11;32.73;;;24.57;;
18732;SDS011;9495;51.210;2.934;2023-04-21T01:17:41;30.07;;;23.07;;
18732;SDS011;9495;51.210;2.934;2023-04-21T01:20:11;27.73;;;24.07;;
18732;SDS011;9495;51.210;2.934;2023-04-21T01:22:42;31.33;;;25.50;;
18732;SDS011;9495;51.210;2.934;2023-04-21T01:25:11;30.27;;;25.03;;
18732;SDS011;9495;51.210;2.934;2023-04-21T01:27:39;28.53;;;24.93;;
18732;SDS011;9495;51.210;2.934;2023-04-21T01:30:08;31.37;;;24.73;;
18732;SDS011;9495;51.210;2.934;2023-04-21T01:32:37;30.87;;;24.97;;
18732;SDS011;9495;51.210;2.934;2023-04-21T01:35:05;31.73;;;26.20;;
18732;SDS011;9495;51.210;2.934;2023-04-21T01:37:34;31.97;;;25.77;;
18732;SDS011;9495;51.210;2.934;2023-04-21T01:40:05;31.23;;;25.23;;
18732;SDS011;9495;51.210;2.934;2023-04-21T01:42:36;31.47;;;25.60;;
18732;SDS011;9495;51.210;2.934;2023-04-21T01:45:06;33.97;;;26.40;;
18732;SDS011;9495;51.210;2.934;2023-04-21T01:47:35;34.57;;;26.90;;
18732;SDS011;9495;51.210;2.934;2023-04-21T01:50:04;31.00;;;25.70;;
18732;SDS011;9495;51.210;2.934;2023-04-21T01:52:33;32.13;;;26.40;;
18732;SDS011;9495;51.210;2.934;2023-04-21T01:55:02;31.10;;;25.40;;
18732;SDS011;9495;51.210;2.934;2023-04-21T01:57:33;29.90;;;24.70;;
18732;SDS011;9495;51.210;2.934;2023-04-21T02:00:01;30.43;;;25.90;;
18732;SDS011;9495;51.210;2.934;2023-04-21T02:02:30;33.90;;;26.83;;
18732;SDS011;9495;51.210;2.934;2023-04-21T02:04:58;31.20;;;26.50;;
18732;SDS011;9495;51.210;2.934;2023-04-21T02:07:27;34.40;;;26.87;;
18732;SDS011;9495;51.210;2.934;2023-04-21T02:09:56;30.57;;;25.13;;
18732;SDS011;9495;51.210;2.934;2023-04-21T02:12:26;32.87;;;25.93;;
18732;SDS011;9495;51.210;2.934;2023-04-21T02:14:54;32.63;;;25.83;;
18732;SDS011;9495;51.210;2.934;2023-04-21T02:17:22;32.33;;;26.20;;
18732;SDS011;9495;51.210;2.934;2023-04-21T02:19:53;32.77;;;26.23;;
18732;SDS011;9495;51.210;2.934;2023-04-21T02:22:21;31.87;;;26.23;;
18732;SDS011;9495;51.210;2.934;2023-04-21T02:24:50;32.80;;;26.40;;
18732;SDS011;9495;51.210;2.934;2023-04-21T02:27:18;31.30;;;26.03;;
18732;SDS011;9495;51.210;2.934;2023-04-21T02:29:48;33.30;;;24.67;;
18732;SDS011;9495;51.210;2.934;2023-04-21T02:32:17;31.63;;;25.30;;
18732;SDS011;9495;51.210;2.934;2023-04-21T02:34:51;32.13;;;25.17;;
18732;SDS011;9495;51.210;2.934;2023-04-21T02:37:20;29.53;;;25.13;;
18732;SDS011;9495;51.210;2.934;2023-04-21T02:39:48;32.10;;;25.43;;
18732;SDS011;9495;51.210;2.934;2023-04-21T02:42:17;32.37;;;26.57;;
18732;SDS011;9495;51.210;2.934;2023-04-21T02:44:45;29.37;;;24.37;;
18732;SDS011;9495;51.210;2.934;2023-04-21T02:47:16;31.10;;;25.57;;
18732;SDS011;9495;51.210;2.934;2023-04-21T02:49:44;30.83;;;25.27;;
18732;SDS011;9495;51.210;2.934;2023-04-21T02:52:13;33.17;;;25.00;;
18732;SDS011;9495;51.210;2.934;2023-04-21T02:54:41;31.37;;;25.43;;
18732;SDS011;9495;51.210;2.934;2023-04-21T02:57:09;30.30;;;25.30;;
18732;SDS011;9495;51.210;2.934;2023-04-21T02:59:38;29.17;;;24.70;;
18732;SDS011;9495;51.210;2.934;2023-04-21T03:02:06;30.67;;;24.47;;
18732;SDS011;9495;51.210;2.934;2023-04-21T03:04:37;32.93;;;25.47;;
18732;SDS011;9495;51.210;2.934;2023-04-21T03:07:10;31.10;;;25.87;;
18732;SDS011;9495;51.210;2.934;2023-04-21T03:09:39;31.07;;;25.37;;
18732;SDS011;9495;51.210;2.934;2023-04-21T03:12:08;33.60;;;27.80;;
18732;SDS011;9495;51.210;2.934;2023-04-21T03:14:36;34.63;;;28.00;;
18732;SDS011;9495;51.210;2.934;2023-04-21T03:17:05;32.70;;;28.67;;
18732;SDS011;9495;51.210;2.934;2023-04-21T03:19:33;38.97;;;29.60;;
18732;SDS011;9495;51.210;2.934;2023-04-21T03:22:03;40.90;;;31.70;;
18732;SDS011;9495;51.210;2.934;2023-04-21T03:24:31;41.60;;;32.60;;
18732;SDS011;9495;51.210;2.934;2023-04-21T03:27:00;40.10;;;32.90;;
18732;SDS011;9495;51.210;2.934;2023-04-21T03:29:29;41.63;;;32.60;;
18732;SDS011;9495;51.210;2.934;2023-04-21T03:31:57;42.30;;;33.57;;
18732;SDS011;9495;51.210;2.934;2023-04-21T03:34:26;46.43;;;35.33;;
18732;SDS011;9495;51.210;2.934;2023-04-21T03:36:54;46.83;;;35.43;;
18732;SDS011;9495;51.210;2.934;2023-04-21T03:39:24;45.40;;;35.07;;
18732;SDS011;9495;51.210;2.934;2023-04-21T03:41:52;45.53;;;35.23;;
18732;SDS011;9495;51.210;2.934;2023-04-21T03:44:21;44.87;;;35.43;;
18732;SDS011;9495;51.210;2.934;2023-04-21T03:46:52;47.43;;;37.40;;
18732;SDS011;9495;51.210;2.934;2023-04-21T03:49:20;49.50;;;38.00;;
18732;SDS011;9495;51.210;2.934;2023-04-21T03:51:49;49.80;;;38.33;;
18732;SDS011;9495;51.210;2.934;2023-04-21T03:54:17;57.00;;;40.83;;
18732;SDS011;9495;51.210;2.934;2023-04-21T03:56:47;55.17;;;41.07;;
18732;SDS011;9495;51.210;2.934;2023-04-21T03:59:16;56.37;;;41.70;;
18732;SDS011;9495;51.210;2.934;2023-04-21T04:01:45;59.77;;;43.97;;
18732;SDS011;9495;51.210;2.934;2023-04-21T04:04:13;57.40;;;44.00;;
18732;SDS011;9495;51.210;2.934;2023-04-21T04:06:42;62.10;;;44.60;;
18732;SDS011;9495;51.210;2.934;2023-04-21T04:09:11;63.80;;;45.07;;
18732;SDS011;9495;51.210;2.934;2023-04-21T04:11:39;65.33;;;47.73;;
18732;SDS011;9495;51.210;2.934;2023-04-21T04:14:09;65.23;;;45.90;;
18732;SDS011;9495;51.210;2.934;2023-04-21T04:16:37;61.33;;;45.33;;
18732;SDS011;9495;51.210;2.934;2023-04-21T04:19:07;68.93;;;48.77;;
18732;SDS011;9495;51.210;2.934;2023-04-21T04:21:35;67.73;;;46.93;;
18732;SDS011;9495;51.210;2.934;2023-04-21T04:24:04;70.30;;;49.17;;
18732;SDS011;9495;51.210;2.934;2023-04-21T04:26:34;72.17;;;49.53;;
18732;SDS011;9495;51.210;2.934;2023-04-21T04:29:03;69.53;;;49.47;;
18732;SDS011;9495;51.210;2.934;2023-04-21T04:31:37;72.17;;;51.13;;
18732;SDS011;9495;51.210;2.934;2023-04-21T04:34:06;72.67;;;50.33;;
18732;SDS011;9495;51.210;2.934;2023-04-21T04:36:34;76.00;;;51.40;;
18732;SDS011;9495;51.210;2.934;2023-04-21T04:39:03;78.23;;;52.87;;
18732;SDS011;9495;51.210;2.934;2023-04-21T04:41:34;77.07;;;53.30;;
18732;SDS011;9495;51.210;2.934;2023-04-21T04:44:03;81.20;;;52.73;;
18732;SDS011;9495;51.210;2.934;2023-04-21T04:46:32;85.83;;;56.23;;
18732;SDS011;9495;51.210;2.934;2023-04-21T04:49:02;87.00;;;56.13;;
18732;SDS011;9495;51.210;2.934;2023-04-21T04:51:31;95.40;;;58.53;;
18732;SDS011;9495;51.210;2.934;2023-04-21T04:53:59;89.93;;;58.37;;
18732;SDS011;9495;51.210;2.934;2023-04-21T04:56:28;94.90;;;58.03;;
18732;SDS011;9495;51.210;2.934;2023-04-21T04:58:57;96.20;;;59.67;;
18732;SDS011;9495;51.210;2.934;2023-04-21T05:01:26;94.00;;;59.17;;
18732;SDS011;9495;51.210;2.934;2023-04-21T05:03:56;92.80;;;58.83;;
18732;SDS011;9495;51.210;2.934;2023-04-21T05:06:26;95.77;;;60.23;;
18732;SDS011;9495;51.210;2.934;2023-04-21T05:08:55;101.00;;;60.60;;
18732;SDS011;9495;51.210;2.934;2023-04-21T05:11:23;103.90;;;61.93;;
18732;SDS011;9495;51.210;2.934;2023-04-21T05:13:52;105.57;;;62.27;;
18732;SDS011;9495;51.210;2.934;2023-04-21T05:16:20;105.00;;;61.73;;
18732;SDS011;9495;51.210;2.934;2023-04-21T05:18:49;103.77;;;61.30;;
18732;SDS011;9495;51.210;2.934;2023-04-21T05:21:22;107.03;;;62.90;;
18732;SDS011;9495;51.210;2.934;2023-04-21T05:23:54;111.13;;;64.97;;
18732;SDS011;9495;51.210;2.934;2023-04-21T05:26:23;105.07;;;61.90;;
18732;SDS011;9495;51.210;2.934;2023-04-21T05:28:53;107.03;;;62.20;;
18732;SDS011;9495;51.210;2.934;2023-04-21T05:31:22;108.93;;;63.70;;
18732;SDS011;9495;51.210;2.934;2023-04-21T05:33:51;101.23;;;60.47;;
18732;SDS011;9495;51.210;2.934;2023-04-21T05:36:19;111.77;;;62.70;;
18732;SDS011;9495;51.210;2.934;2023-04-21T05:38:50;113.30;;;63.33;;
18732;SDS011;9495;51.210;2.934;2023-04-21T05:41:20;109.60;;;64.40;;
18732;SDS011;9495;51.210;2.934;2023-04-21T05:43:49;109.63;;;60.87;;
18732;SDS011;9495;51.210;2.934;2023-04-21T05:46:17;103.33;;;60.33;;
18732;SDS011;9495;51.210;2.934;2023-04-21T05:48:46;103.87;;;58.30;;
18732;SDS011;9495;51.210;2.934;2023-04-21T05:51:14;97.17;;;57.53;;
18732;SDS011;9495;51.210;2.934;2023-04-21T05:53:43;87.10;;;52.07;;
18732;SDS011;9495;51.210;2.934;2023-04-21T05:56:12;84.43;;;53.20;;
18732;SDS011;9495;51.210;2.934;2023-04-21T05:58:42;86.93;;;54.80;;
18732;SDS011;9495;51.210;2.934;2023-04-21T06:01:11;93.40;;;54.13;;
18732;SDS011;9495;51.210;2.934;2023-04-21T06:03:40;78.83;;;52.33;;
18732;SDS011;9495;51.210;2.934;2023-04-21T06:06:09;84.50;;;50.73;;
18732;SDS011;9495;51.210;2.934;2023-04-21T06:08:38;80.63;;;51.43;;
18732;SDS011;9495;51.210;2.934;2023-04-21T06:11:07;88.23;;;52.70;;
18732;SDS011;9495;51.210;2.934;2023-04-21T06:13:36;91.83;;;54.67;;
18732;SDS011;9495;51.210;2.934;2023-04-21T06:16:08;86.10;;;49.70;;
18732;SDS011;9495;51.210;2.934;2023-04-21T06:18:37;83.50;;;51.03;;
18732;SDS011;9495;51.210;2.934;2023-04-21T06:21:05;78.50;;;47.20;;
18732;SDS011;9495;51.210;2.934;2023-04-21T06:23:34;82.77;;;50.57;;
18732;SDS011;9495;51.210;2.934;2023-04-21T06:26:03;83.27;;;49.50;;
18732;SDS011;9495;51.210;2.934;2023-04-21T06:28:32;84.73;;;51.40;;
18732;SDS011;9495;51.210;2.934;2023-04-21T06:31:02;88.47;;;52.30;;
18732;SDS011;9495;51.210;2.934;2023-04-21T06:33:36;90.77;;;55.93;;
18732;SDS011;9495;51.210;2.934;2023-04-21T06:36:04;85.77;;;53.07;;
18732;SDS011;9495;51.210;2.934;2023-04-21T06:38:33;93.87;;;55.43;;
18732;SDS011;9495;51.210;2.934;2023-04-21T06:41:02;91.13;;;54.63;;
18732;SDS011;9495;51.210;2.934;2023-04-21T06:43:31;96.23;;;57.27;;
18732;SDS011;9495;51.210;2.934;2023-04-21T06:45:59;96.27;;;56.90;;
18732;SDS011;9495;51.210;2.934;2023-04-21T06:48:28;94.87;;;57.87;;
18732;SDS011;9495;51.210;2.934;2023-04-21T06:50:58;103.93;;;58.77;;
18732;SDS011;9495;51.210;2.934;2023-04-21T06:53:28;106.90;;;70.55;;
18732;SDS011;9495;51.210;2.934;2023-04-21T06:55:56;99.17;;;59.57;;
18732;SDS011;9495;51.210;2.934;2023-04-21T06:58:25;104.27;;;58.73;;
18732;SDS011;9495;51.210;2.934;2023-04-21T07:00:53;95.30;;;58.67;;
18732;SDS011;9495;51.210;2.934;2023-04-21T07:03:22;81.43;;;52.17;;
18732;SDS011;9495;51.210;2.934;2023-04-21T07:05:50;85.30;;;54.00;;
18732;SDS011;9495;51.210;2.934;2023-04-21T07:08:20;72.00;;;45.97;;
18732;SDS011;9495;51.210;2.934;2023-04-21T07:10:49;64.07;;;42.13;;
18732;SDS011;9495;51.210;2.934;2023-04-21T07:13:17;61.50;;;41.87;;
18732;SDS011;9495;51.210;2.934;2023-04-21T07:15:46;63.30;;;42.87;;
18732;SDS011;9495;51.210;2.934;2023-04-21T07:18:14;64.73;;;42.80;;
18732;SDS011;9495;51.210;2.934;2023-04-21T07:20:43;63.57;;;42.77;;
18732;SDS011;9495;51.210;2.934;2023-04-21T07:23:11;62.40;;;41.87;;
18732;SDS011;9495;51.210;2.934;2023-04-21T07:25:41;62.43;;;43.70;;
18732;SDS011;9495;51.210;2.934;2023-04-21T07:28:10;67.13;;;45.60;;
18732;SDS011;9495;51.210;2.934;2023-04-21T07:30:40;63.30;;;42.93;;
18732;SDS011;9495;51.210;2.934;2023-04-21T07:33:09;62.10;;;42.13;;
18732;SDS011;9495;51.210;2.934;2023-04-21T07:35:37;63.57;;;44.77;;
18732;SDS011;9495;51.210;2.934;2023-04-21T07:38:06;65.20;;;44.93;;
18732;SDS011;9495;51.210;2.934;2023-04-21T07:40:34;64.47;;;46.57;;
18732;SDS011;9495;51.210;2.934;2023-04-21T07:43:04;67.57;;;47.27;;
18732;SDS011;9495;51.210;2.934;2023-04-21T07:45:33;63.23;;;43.43;;
18732;SDS011;9495;51.210;2.934;2023-04-21T07:48:01;59.57;;;43.27;;
18732;SDS011;9495;51.210;2.934;2023-04-21T07:50:31;63.70;;;43.57;;
18732;SDS011;9495;51.210;2.934;2023-04-21T07:53:01;59.80;;;43.43;;
18732;SDS011;9495;51.210;2.934;2023-04-21T07:55:29;59.83;;;43.93;;
18732;SDS011;9495;51.210;2.934;2023-04-21T07:57:57;59.20;;;40.97;;
18732;SDS011;9495;51.210;2.934;2023-04-21T08:00:27;56.17;;;38.70;;
18732;SDS011;9495;51.210;2.934;2023-04-21T08:02:56;54.50;;;38.93;;
18732;SDS011;9495;51.210;2.934;2023-04-21T08:05:24;49.30;;;34.83;;
18732;SDS011;9495;51.210;2.934;2023-04-21T08:07:59;50.27;;;38.40;;
18732;SDS011;9495;51.210;2.934;2023-04-21T08:10:27;55.87;;;39.37;;
18732;SDS011;9495;51.210;2.934;2023-04-21T08:12:56;53.27;;;38.73;;
18732;SDS011;9495;51.210;2.934;2023-04-21T08:15:25;45.23;;;30.77;;
18732;SDS011;9495;51.210;2.934;2023-04-21T08:17:54;44.80;;;35.35;;
18732;SDS011;9495;51.210;2.934;2023-04-21T08:20:23;40.73;;;31.77;;
18732;SDS011;9495;51.210;2.934;2023-04-21T08:22:51;39.97;;;32.40;;
18732;SDS011;9495;51.210;2.934;2023-04-21T08:25:20;38.77;;;30.93;;
18732;SDS011;9495;51.210;2.934;2023-04-21T08:27:49;38.67;;;31.23;;
18732;SDS011;9495;51.210;2.934;2023-04-21T08:30:17;40.47;;;29.33;;
18732;SDS011;9495;51.210;2.934;2023-04-21T08:32:46;39.83;;;29.93;;
18732;SDS011;9495;51.210;2.934;2023-04-21T08:35:16;40.13;;;30.77;;
18732;SDS011;9495;51.210;2.934;2023-04-21T08:37:44;38.83;;;29.90;;
18732;SDS011;9495;51.210;2.934;2023-04-21T08:40:15;39.07;;;30.17;;
18732;SDS011;9495;51.210;2.934;2023-04-21T08:42:43;36.40;;;28.53;;
18732;SDS011;9495;51.210;2.934;2023-04-21T08:45:12;39.47;;;28.70;;
18732;SDS011;9495;51.210;2.934;2023-04-21T08:47:41;38.07;;;29.90;;
18732;SDS011;9495;51.210;2.934;2023-04-21T08:50:11;37.17;;;29.20;;
18732;SDS011;9495;51.210;2.934;2023-04-21T08:52:42;35.63;;;29.07;;
18732;SDS011;9495;51.210;2.934;2023-04-21T08:55:10;31.63;;;25.27;;
18732;SDS011;9495;51.210;2.934;2023-04-21T08:57:40;35.80;;;27.00;;
18732;SDS011;9495;51.210;2.934;2023-04-21T09:00:09;34.93;;;26.17;;
18732;SDS011;9495;51.210;2.934;2023-04-21T09:02:51;31.17;;;23.90;;
18732;SDS011;9495;51.210;2.934;2023-04-21T09:05:27;31.10;;;25.00;;
18732;SDS011;9495;51.210;2.934;2023-04-21T09:08:07;31.30;;;25.47;;
18732;SDS011;9495;51.210;2.934;2023-04-21T09:10:43;30.60;;;23.83;;
18732;SDS011;9495;51.210;2.934;2023-04-21T09:13:14;30.13;;;24.33;;
18732;SDS011;9495;51.210;2.934;2023-04-21T09:15:44;29.40;;;23.17;;
18732;SDS011;9495;51.210;2.934;2023-04-21T09:18:13;30.93;;;25.43;;
18732;SDS011;9495;51.210;2.934;2023-04-21T09:20:43;34.73;;;26.93;;
18732;SDS011;9495;51.210;2.934;2023-04-21T09:23:14;29.80;;;24.00;;
18732;SDS011;9495;51.210;2.934;2023-04-21T09:25:43;30.47;;;23.17;;
18732;SDS011;9495;51.210;2.934;2023-04-21T09:28:12;32.10;;;25.50;;
18732;SDS011;9495;51.210;2.934;2023-04-21T09:30:41;29.13;;;23.97;;
18732;SDS011;9495;51.210;2.934;2023-04-21T09:33:14;27.63;;;22.77;;
18732;SDS011;9495;51.210;2.934;2023-04-21T09:35:59;27.60;;;22.47;;
18732;SDS011;9495;51.210;2.934;2023-04-21T09:38:29;25.60;;;21.53;;
18732;SDS011;9495;51.210;2.934;2023-04-21T09:40:59;27.00;;;22.70;;
18732;SDS011;9495;51.210;2.934;2023-04-21T09:43:28;27.67;;;22.53;;
18732;SDS011;9495;51.210;2.934;2023-04-21T09:45:56;27.27;;;21.83;;
18732;SDS011;9495;51.210;2.934;2023-04-21T09:48:27;27.83;;;22.20;;
18732;SDS011;9495;51.210;2.934;2023-04-21T09:50:59;24.50;;;21.60;;
18732;SDS011;9495;51.210;2.934;2023-04-21T09:53:50;26.20;;;22.37;;
18732;SDS011;9495;51.210;2.934;2023-04-21T09:56:23;28.83;;;21.67;;
18732;SDS011;9495;51.210;2.934;2023-04-21T09:58:53;25.03;;;21.40;;
18732;SDS011;9495;51.210;2.934;2023-04-21T10:01:24;24.80;;;19.17;;
18732;SDS011;9495;51.210;2.934;2023-04-21T10:03:56;23.30;;;20.70;;
18732;SDS011;9495;51.210;2.934;2023-04-21T10:06:25;23.10;;;19.57;;
18732;SDS011;9495;51.210;2.934;2023-04-21T10:08:55;23.03;;;20.30;;
18732;SDS011;9495;51.210;2.934;2023-04-21T10:11:25;24.43;;;22.13;;
18732;SDS011;9495;51.210;2.934;2023-04-21T10:13:53;26.10;;;23.53;;
18732;SDS011;9495;51.210;2.934;2023-04-21T10:16:22;26.03;;;23.40;;
18732;SDS011;9495;51.210;2.934;2023-04-21T10:18:52;26.27;;;23.47;;
18732;SDS011;9495;51.210;2.934;2023-04-21T10:21:20;24.93;;;22.43;;
18732;SDS011;9495;51.210;2.934;2023-04-21T10:23:50;23.63;;;21.17;;
18732;SDS011;9495;51.210;2.934;2023-04-21T10:26:20;22.77;;;20.43;;
18732;SDS011;9495;51.210;2.934;2023-04-21T10:28:52;24.30;;;20.30;;
18732;SDS011;9495;51.210;2.934;2023-04-21T10:31:28;22.80;;;20.57;;
18732;SDS011;9495;51.210;2.934;2023-04-21T10:34:16;26.57;;;22.33;;
18732;SDS011;9495;51.210;2.934;2023-04-21T10:37:11;23.57;;;21.00;;
18732;SDS011;9495;51.210;2.934;2023-04-21T10:39:44;22.43;;;20.07;;
18732;SDS011;9495;51.210;2.934;2023-04-21T10:42:20;22.73;;;20.30;;
18732;SDS011;9495;51.210;2.934;2023-04-21T10:45:04;28.13;;;21.43;;
18732;SDS011;9495;51.210;2.934;2023-04-21T10:47:47;23.20;;;20.80;;
18732;SDS011;9495;51.210;2.934;2023-04-21T10:50:17;23.60;;;21.17;;
18732;SDS011;9495;51.210;2.934;2023-04-21T10:52:51;24.20;;;21.60;;
18732;SDS011;9495;51.210;2.934;2023-04-21T10:55:24;22.17;;;19.93;;
18732;SDS011;9495;51.210;2.934;2023-04-21T10:57:55;21.67;;;19.47;;
18732;SDS011;9495;51.210;2.934;2023-04-21T11:00:24;20.07;;;18.07;;
18732;SDS011;9495;51.210;2.934;2023-04-21T11:02:57;21.20;;;18.07;;
18732;SDS011;9495;51.210;2.934;2023-04-21T11:05:27;21.67;;;19.50;;
18732;SDS011;9495;51.210;2.934;2023-04-21T11:08:03;20.60;;;17.83;;
18732;SDS011;9495;51.210;2.934;2023-04-21T11:10:42;21.20;;;15.63;;
18732;SDS011;9495;51.210;2.934;2023-04-21T11:13:23;21.83;;;16.73;;
18732;SDS011;9495;51.210;2.934;2023-04-21T11:15:59;21.70;;;16.67;;
18732;SDS011;9495;51.210;2.934;2023-04-21T11:18:33;17.07;;;15.27;;
18732;SDS011;9495;51.210;2.934;2023-04-21T11:21:10;16.90;;;15.10;;
18732;SDS011;9495;51.210;2.934;2023-04-21T11:23:49;16.73;;;14.73;;
18732;SDS011;9495;51.210;2.934;2023-04-21T11:26:28;17.53;;;14.03;;
18732;SDS011;9495;51.210;2.934;2023-04-21T11:29:02;18.03;;;12.87;;
18732;SDS011;9495;51.210;2.934;2023-04-21T11:31:33;16.80;;;12.83;;
18732;SDS011;9495;51.210;2.934;2023-04-21T11:34:02;16.93;;;14.50;;
18732;SDS011;9495;51.210;2.934;2023-04-21T11:36:32;15.30;;;13.23;;
18732;SDS011;9495;51.210;2.934;2023-04-21T11:39:03;15.68;;;13.40;;
18732;SDS011;9495;51.210;2.934;2023-04-21T11:41:33;13.70;;;12.17;;
18732;SDS011;9495;51.210;2.934;2023-04-21T11:44:03;13.52;;;12.13;;
18732;SDS011;9495;51.210;2.934;2023-04-21T11:46:33;13.98;;;12.48;;
18732;SDS011;9495;51.210;2.934;2023-04-21T11:49:03;15.00;;;12.50;;
18732;SDS011;9495;51.210;2.934;2023-04-21T11:51:33;16.20;;;12.27;;
18732;SDS011;9495;51.210;2.934;2023-04-21T11:54:03;14.48;;;12.73;;
18732;SDS011;9495;51.210;2.934;2023-04-21T11:56:33;15.57;;;12.88;;
18732;SDS011;9495;51.210;2.934;2023-04-21T11:59:07;17.10;;;12.60;;
18732;SDS011;9495;51.210;2.934;2023-04-21T12:01:41;14.90;;;13.30;;
18732;SDS011;9495;51.210;2.934;2023-04-21T12:04:14;15.38;;;13.77;;
18732;SDS011;9495;51.210;2.934;2023-04-21T12:06:44;16.85;;;14.15;;
18732;SDS011;9495;51.210;2.934;2023-04-21T12:09:15;16.63;;;14.52;;
18732;SDS011;9495;51.210;2.934;2023-04-21T12:11:46;18.75;;;14.48;;
18732;SDS011;9495;51.210;2.934;2023-04-21T12:14:17;18.30;;;15.35;;
18732;SDS011;9495;51.210;2.934;2023-04-21T12:16:47;16.83;;;14.55;;
18732;SDS011;9495;51.210;2.934;2023-04-21T12:19:23;16.10;;;14.38;;
18732;SDS011;9495;51.210;2.934;2023-04-21T12:22:01;15.55;;;13.90;;
18732;SDS011;9495;51.210;2.934;2023-04-21T12:24:35;18.33;;;15.05;;
18732;SDS011;9495;51.210;2.934;2023-04-21T12:27:04;26.08;;;23.08;;
18732;SDS011;9495;51.210;2.934;2023-04-21T12:29:34;28.57;;;21.83;;
18732;SDS011;9495;51.210;2.934;2023-04-21T12:32:04;32.42;;;26.52;;
18732;SDS011;9495;51.210;2.934;2023-04-21T12:34:33;29.75;;;24.55;;
18732;SDS011;9495;51.210;2.934;2023-04-21T12:37:01;31.03;;;24.67;;
18732;SDS011;9495;51.210;2.934;2023-04-21T12:39:31;37.13;;;27.23;;
18732;SDS011;9495;51.210;2.934;2023-04-21T12:42:00;35.87;;;27.23;;
18732;SDS011;9495;51.210;2.934;2023-04-21T12:44:28;37.13;;;27.50;;
18732;SDS011;9495;51.210;2.934;2023-04-21T12:46:59;33.97;;;26.07;;
18732;SDS011;9495;51.210;2.934;2023-04-21T12:49:27;36.53;;;27.60;;
18732;SDS011;9495;51.210;2.934;2023-04-21T12:51:56;37.27;;;30.50;;
18732;SDS011;9495;51.210;2.934;2023-04-21T12:54:24;39.00;;;28.70;;
18732;SDS011;9495;51.210;2.934;2023-04-21T12:56:53;34.77;;;28.50;;
18732;SDS011;9495;51.210;2.934;2023-04-21T12:59:23;36.77;;;28.50;;
18732;SDS011;9495;51.210;2.934;2023-04-21T13:01:52;36.80;;;27.43;;
18732;SDS011;9495;51.210;2.934;2023-04-21T13:04:22;33.80;;;25.53;;
18732;SDS011;9495;51.210;2.934;2023-04-21T13:06:51;32.83;;;24.97;;
18732;SDS011;9495;51.210;2.934;2023-04-21T13:09:19;35.53;;;29.20;;
18732;SDS011;9495;51.210;2.934;2023-04-21T13:11:48;32.17;;;24.63;;
18732;SDS011;9495;51.210;2.934;2023-04-21T13:14:17;36.90;;;25.67;;
18732;SDS011;9495;51.210;2.934;2023-04-21T13:16:45;31.77;;;24.83;;
18732;SDS011;9495;51.210;2.934;2023-04-21T13:19:14;32.33;;;26.03;;
18732;SDS011;9495;51.210;2.934;2023-04-21T13:21:43;34.43;;;25.17;;
18732;SDS011;9495;51.210;2.934;2023-04-21T13:24:12;33.80;;;27.40;;
18732;SDS011;9495;51.210;2.934;2023-04-21T13:26:41;40.00;;;31.93;;
18732;SDS011;9495;51.210;2.934;2023-04-21T13:29:09;42.47;;;32.00;;
18732;SDS011;9495;51.210;2.934;2023-04-21T13:31:38;45.03;;;31.60;;
18732;SDS011;9495;51.210;2.934;2023-04-21T13:34:07;39.63;;;28.27;;
18732;SDS011;9495;51.210;2.934;2023-04-21T13:36:36;42.53;;;31.00;;
18732;SDS011;9495;51.210;2.934;2023-04-21T13:39:07;44.00;;;32.17;;
18732;SDS011;9495;51.210;2.934;2023-04-21T13:41:36;48.10;;;33.73;;
18732;SDS011;9495;51.210;2.934;2023-04-21T13:44:05;44.73;;;30.17;;
18732;SDS011;9495;51.210;2.934;2023-04-21T13:46:33;44.57;;;32.23;;
18732;SDS011;9495;51.210;2.934;2023-04-21T13:49:02;44.23;;;31.03;;
18732;SDS011;9495;51.210;2.934;2023-04-21T13:51:31;45.17;;;29.97;;
18732;SDS011;9495;51.210;2.934;2023-04-21T13:54:00;43.30;;;29.87;;
18732;SDS011;9495;51.210;2.934;2023-04-21T13:56:30;45.60;;;31.37;;
18732;SDS011;9495;51.210;2.934;2023-04-21T13:58:58;45.47;;;31.37;;
18732;SDS011;9495;51.210;2.934;2023-04-21T14:01:27;45.90;;;31.27;;
18732;SDS011;9495;51.210;2.934;2023-04-21T14:03:55;46.23;;;31.07;;
18732;SDS011;9495;51.210;2.934;2023-04-21T14:06:24;43.63;;;30.03;;
18732;SDS011;9495;51.210;2.934;2023-04-21T14:08:54;43.30;;;29.40;;
18732;SDS011;9495;51.210;2.934;2023-04-21T14:11:22;46.33;;;32.17;;
18732;SDS011;9495;51.210;2.934;2023-04-21T14:13:52;45.80;;;31.47;;
18732;SDS011;9495;51.210;2.934;2023-04-21T14:16:35;47.47;;;32.37;;
18732;SDS011;9495;51.210;2.934;2023-04-21T14:19:04;43.70;;;28.40;;
18732;SDS011;9495;51.210;2.934;2023-04-21T14:21:33;44.83;;;31.23;;
18732;SDS011;9495;51.210;2.934;2023-04-21T14:24:01;43.42;;;31.30;;
18732;SDS011;9495;51.210;2.934;2023-04-21T14:26:30;43.10;;;32.08;;
18732;SDS011;9495;51.210;2.934;2023-04-21T14:29:00;45.70;;;33.40;;
18732;SDS011;9495;51.210;2.934;2023-04-21T14:31:28;44.90;;;33.47;;
18732;SDS011;9495;51.210;2.934;2023-04-21T14:33:57;50.00;;;32.33;;
18732;SDS011;9495;51.210;2.934;2023-04-21T14:36:25;48.13;;;33.60;;
18732;SDS011;9495;51.210;2.934;2023-04-21T14:38:54;43.45;;;31.63;;
18732;SDS011;9495;51.210;2.934;2023-04-21T14:41:23;44.97;;;32.47;;
18732;SDS011;9495;51.210;2.934;2023-04-21T14:43:51;47.35;;;34.00;;
18732;SDS011;9495;51.210;2.934;2023-04-21T14:46:23;45.60;;;33.20;;
18732;SDS011;9495;51.210;2.934;2023-04-21T14:48:52;48.20;;;36.57;;